Time;durP1;ratioP1;P1;durP2;ratioP2;P2;SDS_P1;SDS_P2;PMS_P1;PMS_P2;Temp;Humidity;BMP_temperature;BMP_pressure;BME280_temperature;BME280_humidity;BME280_pressure;Samples;Min_cycle;Max_cycle;Signal;HPM_P1;HPM_P2
2021/06/30 00:00:10;;;;;;;10.53;8.28;;;;;;;19.15;81.83;97228.76;1813812;79;20842;-89
2021/06/30 00:02:38;;;;;;;10.90;9.70;;;;;;;19.08;81.78;97237.39;1813435;79;20982;-88
2021/06/30 00:05:05;;;;;;;11.78;9.90;;;;;;;19.07;82.90;97236.59;1813647;79;21002;-88
2021/06/30 00:07:32;;;;;;;15.05;11.20;;;;;;;19.15;82.23;97249.35;1813290;78;21013;-89
2021/06/30 00:10:00;;;;;;;17.40;9.75;;;;;;;19.23;82.39;97256.38;1813679;79;20843;-88
2021/06/30 00:12:26;;;;;;;12.33;11.10;;;;;;;19.31;81.91;97294.67;1813389;79;20957;-88
2021/06/30 00:14:55;;;;;;;13.50;10.40;;;;;;;19.36;81.87;97343.84;1813689;79;21289;-89
2021/06/30 00:17:21;;;;;;;16.10;6.50;;;;;;;19.22;84.73;97375.03;1813566;79;20815;-82
2021/06/30 00:19:47;;;;;;;11.93;5.15;;;;;;;19.55;77.16;97366.48;1813226;79;21378;-88
2021/06/30 00:22:19;;;;;;;13.28;5.03;;;;;;;19.97;76.87;97374.22;1813374;79;20911;-82
2021/06/30 00:24:46;;;;;;;12.40;4.83;;;;;;;20.29;72.12;97388.73;1812850;79;21045;-82
2021/06/30 00:27:11;;;;;;;13.50;4.53;;;;;;;20.47;72.32;97403.70;1813210;78;21794;-81
2021/06/30 00:29:39;;;;;;;6.67;4.33;;;;;;;20.62;70.36;97408.95;1812945;78;20886;-89
2021/06/30 00:32:06;;;;;;;14.25;3.83;;;;;;;20.74;70.32;97409.40;1813043;79;21347;-90
2021/06/30 00:34:38;;;;;;;5.85;3.02;;;;;;;20.81;68.40;97414.48;1813103;79;20958;-82
2021/06/30 00:37:03;;;;;;;7.25;3.25;;;;;;;20.87;68.40;97430.14;1812473;79;20919;-81
2021/06/30 00:39:31;;;;;;;9.68;3.72;;;;;;;20.94;69.00;97453.70;1813113;79;21195;-82
2021/06/30 00:42:06;;;;;;;11.22;3.12;;;;;;;20.95;66.73;97453.13;1812224;79;20903;-81
2021/06/30 00:44:27;;;;;;;8.73;3.33;;;;;;;20.97;67.54;97469.50;1811068;79;21371;-88
2021/06/30 00:46:53;;;;;;;7.37;2.80;;;;;;;20.99;68.04;97460.28;1812858;79;20908;-81
2021/06/30 00:49:21;;;;;;;7.23;2.43;;;;;;;21.03;67.62;97447.98;1812735;79;21391;-88
2021/06/30 00:51:47;;;;;;;8.58;2.40;;;;;;;21.00;65.54;97470.14;1813040;79;21087;-81
2021/06/30 00:54:13;;;;;;;7.30;2.52;;;;;;;21.01;66.78;97474.48;1812758;79;20791;-82
2021/06/30 00:56:39;;;;;;;6.10;2.00;;;;;;;21.00;66.99;97483.91;1812878;79;20911;-81
2021/06/30 00:59:07;;;;;;;3.05;1.98;;;;;;;20.93;64.92;97492.01;1812850;78;20953;-82
2021/06/30 01:01:36;;;;;;;4.10;2.43;;;;;;;20.94;66.37;97498.34;1812245;79;21213;-89
2021/06/30 01:04:03;;;;;;;6.42;2.92;;;;;;;20.90;66.39;97510.64;1812810;79;21220;-81
2021/06/30 01:06:29;;;;;;;5.50;2.65;;;;;;;20.86;67.36;97509.78;1812847;79;20958;-89
2021/06/30 01:09:03;;;;;;;4.77;2.50;;;;;;;20.82;67.75;97512.44;1819962;78;20933;-81
2021/06/30 01:11:30;;;;;;;6.55;3.17;;;;;;;20.82;67.95;97508.88;1823838;78;20950;-89
2021/06/30 01:13:56;;;;;;;7.23;3.67;;;;;;;20.74;67.92;97516.76;1822631;78;21009;-82
2021/06/30 01:16:22;;;;;;;6.35;2.70;;;;;;;20.67;68.00;97528.39;1822218;78;21262;-89
2021/06/30 01:18:48;;;;;;;6.12;3.30;;;;;;;20.62;68.46;97508.05;1822381;78;21429;-81
2021/06/30 01:21:16;;;;;;;7.17;3.37;;;;;;;20.56;68.79;97492.95;1797299;78;20965;-89
2021/06/30 01:23:43;;;;;;;4.90;2.15;;;;;;;20.52;69.26;97486.58;1822519;78;21816;-81
2021/06/30 01:26:22;;;;;;;4.65;1.70;;;;;;;20.47;69.08;97490.39;1822230;78;27177;-88
2021/06/30 01:28:42;;;;;;;3.17;1.65;;;;;;;20.40;69.30;97499.81;1819671;78;21065;-81
2021/06/30 01:31:09;;;;;;;3.62;1.98;;;;;;;20.42;69.52;97491.20;1822136;78;21433;-88
2021/06/30 01:33:35;;;;;;;8.95;3.58;;;;;;;20.38;70.13;97488.38;1822689;78;21401;-81
2021/06/30 01:36:01;;;;;;;5.33;3.30;;;;;;;20.35;70.71;97473.97;1822286;78;20894;-81
2021/06/30 01:38:28;;;;;;;17.90;3.50;;;;;;;20.19;71.20;97406.58;1822454;78;20997;-84
2021/06/30 01:40:55;;;;;;;6.97;2.95;;;;;;;19.92;74.15;97351.14;1822258;78;21116;-87
2021/06/30 01:43:21;;;;;;;4.15;3.20;;;;;;;19.60;76.84;97325.05;1822542;78;21425;-81
2021/06/30 01:45:52;;;;;;;4.75;2.75;;;;;;;19.44;76.13;97306.36;1822286;78;21104;-88
2021/06/30 01:48:18;;;;;;;8.88;3.42;;;;;;;19.25;76.80;97341.39;1822907;78;20874;-81
2021/06/30 01:50:46;;;;;;;4.60;2.85;;;;;;;19.07;77.50;97408.19;1822457;78;21009;-88
2021/06/30 01:53:12;;;;;;;5.10;2.60;;;;;;;18.98;79.44;97380.67;1822533;78;21675;-81
2021/06/30 01:55:40;;;;;;;4.22;2.83;;;;;;;18.87;80.71;97362.50;1822148;78;20839;-89
2021/06/30 01:58:10;;;;;;;4.60;3.12;;;;;;;18.94;79.50;97393.48;1822220;78;20925;-81
2021/06/30 02:00:38;;;;;;;6.87;4.07;;;;;;;18.96;80.08;97383.73;1822561;78;20902;-82
2021/06/30 02:03:04;;;;;;;13.30;4.17;;;;;;;18.83;80.33;97348.70;1822783;78;21044;-82
2021/06/30 02:05:30;;;;;;;11.70;5.42;;;;;;;18.84;80.11;97339.31;1822312;78;21573;-90
2021/06/30 02:08:00;;;;;;;8.55;4.78;;;;;;;18.86;81.33;97324.66;1820024;78;20894;-90
2021/06/30 02:10:28;;;;;;;8.78;4.05;;;;;;;18.70;82.11;97313.41;1812554;79;20939;-89
2021/06/30 02:12:55;;;;;;;9.30;3.47;;;;;;;18.55;84.58;97284.77;1813332;79;21033;-81
2021/06/30 02:15:26;;;;;;;5.70;3.20;;;;;;;18.51;83.81;97276.42;1812859;79;20966;-81
2021/06/30 02:17:53;;;;;;;8.43;4.17;;;;;;;18.48;82.72;97275.76;1813100;79;21431;-82
2021/06/30 02:20:20;;;;;;;8.20;3.47;;;;;;;18.51;82.23;97276.42;1812552;78;20883;-89
2021/06/30 02:22:46;;;;;;;4.70;2.92;;;;;;;18.52;82.29;97245.09;1809904;78;21001;-81
2021/06/30 02:25:18;;;;;;;5.05;3.45;;;;;;;18.56;82.36;97251.49;1810130;79;20902;-90
2021/06/30 02:27:45;;;;;;;7.90;4.25;;;;;;;18.59;82.14;97242.55;1812777;78;21013;-88
2021/06/30 02:30:21;;;;;;;8.43;3.87;;;;;;;18.67;81.88;97235.92;1812896;79;21040;-89
2021/06/30 02:32:50;;;;;;;3.62;3.05;;;;;;;18.69;81.82;97224.81;1811557;79;20871;-82
2021/06/30 02:35:19;;;;;;;10.15;3.70;;;;;;;18.65;81.98;97212.95;1812945;78;20918;-81
2021/06/30 02:37:45;;;;;;;5.67;3.30;;;;;;;18.63;82.43;97211.11;1812659;79;21363;-81
2021/06/30 02:40:15;;;;;;;8.70;3.80;;;;;;;18.55;82.14;97212.07;1812639;79;20870;-82
2021/06/30 02:42:44;;;;;;;9.05;3.70;;;;;;;18.59;82.12;97204.72;1812539;79;21382;-90
2021/06/30 02:45:14;;;;;;;5.47;4.03;;;;;;;18.59;82.23;97195.12;1812724;79;20894;-82
2021/06/30 02:47:42;;;;;;;5.20;3.60;;;;;;;18.57;82.98;97190.56;1812847;78;21322;-82
2021/06/30 02:50:09;;;;;;;3.75;3.08;;;;;;;18.50;83.43;97196.66;1812923;79;21057;-90
2021/06/30 02:52:40;;;;;;;4.47;3.50;;;;;;;18.44;83.36;97182.96;1812901;79;20910;-89
2021/06/30 02:55:08;;;;;;;6.03;3.35;;;;;;;18.45;83.84;97174.16;1812566;79;21084;-89
2021/06/30 02:57:35;;;;;;;5.97;3.40;;;;;;;18.41;83.68;97172.70;1812694;79;21044;-81
2021/06/30 03:00:03;;;;;;;6.58;4.00;;;;;;;18.39;83.42;97164.61;1812899;79;20925;-89
2021/06/30 03:02:29;;;;;;;7.40;3.77;;;;;;;18.41;83.12;97167.22;1812760;79;20938;-82
2021/06/30 03:04:55;;;;;;;4.92;3.30;;;;;;;18.43;84.34;97177.25;1812955;79;21068;-90
2021/06/30 03:07:21;;;;;;;5.65;3.80;;;;;;;18.44;87.38;97173.94;1812708;79;21851;-90
2021/06/30 03:09:51;;;;;;;5.97;3.70;;;;;;;18.47;85.49;97169.14;1812012;79;20934;-89
2021/06/30 03:12:19;;;;;;;6.40;4.40;;;;;;;18.48;83.89;97169.36;1813099;79;20867;-89
2021/06/30 03:14:55;;;;;;;;;;;;;;;;;;;;;
2021/06/30 03:17:13;;;;;;;5.63;3.63;;;;;;;18.49;83.31;97170.38;1808724;79;20871;-81
2021/06/30 03:19:42;;;;;;;4.12;3.60;;;;;;;18.45;84.49;97165.92;1812924;79;21119;-89
2021/06/30 03:22:09;;;;;;;5.47;4.30;;;;;;;18.45;83.74;97172.78;1813048;78;20931;-82
2021/06/30 03:24:37;;;;;;;8.55;5.03;;;;;;;18.45;84.10;97176.32;1812523;79;21674;-89
2021/06/30 03:27:07;;;;;;;9.58;5.65;;;;;;;18.43;83.84;97173.72;1812415;79;20958;-90
2021/06/30 03:29:35;;;;;;;8.10;4.50;;;;;;;18.45;83.91;97179.06;1813335;79;20966;-89
2021/06/30 03:32:09;;;;;;;9.50;5.43;;;;;;;18.47;83.87;97180.11;1812966;79;21085;-89
2021/06/30 03:34:29;;;;;;;5.95;4.58;;;;;;;18.51;83.92;97188.64;1810057;79;20934;-90
2021/06/30 03:36:57;;;;;;;10.10;5.72;;;;;;;18.54;83.74;97196.19;1812834;79;21339;-90
2021/06/30 03:39:25;;;;;;;7.12;5.25;;;;;;;18.66;83.67;97189.05;1778631;79;21021;-82
2021/06/30 03:41:55;;;;;;;9.27;5.47;;;;;;;18.75;84.92;97191.05;1812750;79;20922;-82
2021/06/30 03:44:25;;;;;;;7.37;5.17;;;;;;;18.83;85.02;97196.37;1813046;79;21711;-82
2021/06/30 03:46:50;;;;;;;7.90;5.92;;;;;;;18.88;84.35;97195.30;1812230;79;20918;-89
2021/06/30 03:49:18;;;;;;;14.10;5.92;;;;;;;18.94;84.04;97191.15;1812837;79;21378;-82
2021/06/30 03:51:44;;;;;;;7.37;5.60;;;;;;;19.03;83.88;97196.46;1811582;79;20974;-90
2021/06/30 03:54:11;;;;;;;9.98;6.12;;;;;;;19.22;83.67;97197.91;1813195;79;20879;-90
2021/06/30 03:56:38;;;;;;;11.28;10.00;;;;;;;19.37;83.20;97203.97;1810121;79;20887;-82
2021/06/30 03:59:07;;;;;;;9.60;6.07;;;;;;;19.54;82.76;97234.96;1810749;79;21358;-89
2021/06/30 04:01:35;;;;;;;8.25;5.35;;;;;;;19.50;83.15;97255.49;1813182;79;20930;-82
2021/06/30 04:04:06;;;;;;;9.33;5.50;;;;;;;19.50;82.73;97260.20;1812745;79;20935;-82
2021/06/30 04:06:33;;;;;;;6.72;5.67;;;;;;;19.63;82.46;97265.24;1812882;79;20997;-90
2021/06/30 04:09:01;;;;;;;10.43;5.80;;;;;;;19.69;82.18;97265.20;1813014;78;21429;-82
2021/06/30 04:11:29;;;;;;;6.70;4.67;;;;;;;19.80;82.23;97272.89;1813392;78;21044;-82
2021/06/30 04:13:58;;;;;;;7.55;4.45;;;;;;;19.83;81.85;97279.06;1807241;79;20938;-82
2021/06/30 04:16:29;;;;;;;12.20;9.65;;;;;;;19.78;80.03;97282.08;1826909;78;21432;-82
2021/06/30 04:18:58;;;;;;;10.83;6.87;;;;;;;19.73;79.03;97287.25;1836648;78;21032;-82
2021/06/30 04:21:25;;;;;;;24.02;18.37;;;;;;;19.79;79.17;97291.91;1835960;78;21056;-90
2021/06/30 04:23:53;;;;;;;13.00;7.90;;;;;;;19.80;79.13;97294.87;1836378;78;21389;-82
2021/06/30 04:26:22;;;;;;;19.67;14.28;;;;;;;19.80;78.85;97308.05;1835360;78;20888;-90
2021/06/30 04:28:48;;;;;;;41.00;34.80;;;;;;;19.88;78.41;97318.63;1835967;78;21373;-90
2021/06/30 04:31:14;;;;;;;185.00;135.03;;;;;;;19.82;78.43;97337.92;1836246;78;21043;-90
2021/06/30 04:33:43;;;;;;;25.25;21.65;;;;;;;19.56;79.07;97331.56;1836492;78;21062;-82
2021/06/30 04:36:11;;;;;;;5.72;3.95;;;;;;;19.75;78.65;97337.77;1836162;78;20942;-89
2021/06/30 04:38:43;;;;;;;5.55;3.22;;;;;;;19.98;78.37;97342.23;1833451;78;21231;-82
2021/06/30 04:41:10;;;;;;;4.65;2.92;;;;;;;20.03;77.82;97350.80;1836130;78;20921;-82
2021/06/30 04:43:39;;;;;;;7.58;2.90;;;;;;;20.05;77.41;97350.44;1831095;78;20925;-90
2021/06/30 04:46:11;;;;;;;8.33;2.92;;;;;;;20.21;77.22;97358.88;1808022;78;21226;-82
2021/06/30 04:48:47;;;;;;;;;;;;;;;;;;;;;
2021/06/30 04:51:12;;;;;;;8.10;3.40;;;;;;;20.39;76.92;97375.78;1831887;78;20933;-82
2021/06/30 04:53:35;;;;;;;6.05;2.62;;;;;;;20.20;76.70;97386.17;1825902;78;20996;-82
2021/06/30 04:56:12;;;;;;;5.15;2.90;;;;;;;19.98;77.22;97396.44;1835870;77;20886;-90
2021/06/30 04:58:35;;;;;;;5.03;2.70;;;;;;;19.98;77.41;97394.48;1832843;78;21067;-90
2021/06/30 05:01:03;;;;;;;6.05;3.20;;;;;;;19.97;77.78;97397.02;1835707;78;20941;-90
2021/06/30 05:03:32;;;;;;;5.23;3.10;;;;;;;19.79;78.32;97413.65;1836899;78;21421;-82
2021/06/30 05:05:59;;;;;;;4.90;3.45;;;;;;;19.50;79.66;97409.35;1833302;78;20933;-90
2021/06/30 05:08:25;;;;;;;3.72;3.00;;;;;;;19.61;79.12;97410.45;1836320;78;20951;-89
2021/06/30 05:10:53;;;;;;;8.17;4.07;;;;;;;19.61;79.11;97419.27;1834301;78;20925;-82
2021/06/30 05:13:19;;;;;;;7.85;3.08;;;;;;;19.37;79.54;97423.72;1836221;78;21000;-90
2021/06/30 05:15:47;;;;;;;7.20;3.00;;;;;;;19.30;79.40;97415.28;1835644;77;21127;-89
2021/06/30 05:18:16;;;;;;;7.20;3.55;;;;;;;19.30;80.16;97425.47;1835688;78;21593;-90
2021/06/30 05:20:45;;;;;;;6.80;3.45;;;;;;;19.33;79.69;97431.66;1831843;78;20987;-90
2021/06/30 05:23:11;;;;;;;7.00;3.25;;;;;;;19.27;79.79;97431.67;1836216;78;21104;-89
2021/06/30 05:25:37;;;;;;;5.28;3.42;;;;;;;19.32;80.29;97430.86;1835976;78;20926;-90
2021/06/30 05:28:07;;;;;;;5.70;3.40;;;;;;;19.39;79.00;97438.47;1808050;78;20950;-82
2021/06/30 05:30:35;;;;;;;3.90;2.83;;;;;;;19.06;79.30;97444.24;1835797;78;20973;-90
2021/06/30 05:33:01;;;;;;;3.50;2.65;;;;;;;18.91;79.23;97452.63;1836113;78;20894;-82
2021/06/30 05:35:29;;;;;;;3.70;3.30;;;;;;;18.90;79.17;97456.53;1836032;78;20878;-91
2021/06/30 05:37:56;;;;;;;5.65;2.70;;;;;;;18.98;78.82;97452.84;1836146;78;20925;-82
2021/06/30 05:40:24;;;;;;;7.47;2.92;;;;;;;19.10;78.92;97461.03;1836227;78;20926;-82
2021/06/30 05:42:51;;;;;;;5.05;2.75;;;;;;;19.24;78.77;97468.09;1835141;78;21000;-90
2021/06/30 05:45:17;;;;;;;3.25;2.85;;;;;;;19.22;78.85;97473.91;1835957;78;20944;-82
2021/06/30 05:47:44;;;;;;;5.17;2.70;;;;;;;19.33;78.71;97465.41;1835795;78;21115;-82
2021/06/30 05:50:16;;;;;;;3.72;2.10;;;;;;;19.39;78.14;97469.48;1835893;78;21306;-82
2021/06/30 05:52:42;;;;;;;3.72;2.10;;;;;;;19.41;77.99;97472.70;1835516;78;20905;-89
2021/06/30 05:55:14;;;;;;;4.15;2.30;;;;;;;19.47;76.91;97465.56;1836052;78;21299;-90
2021/06/30 05:57:40;;;;;;;9.30;2.90;;;;;;;19.49;76.91;97470.95;1835882;78;20926;-81
2021/06/30 06:00:12;;;;;;;3.42;2.67;;;;;;;19.53;76.68;97466.91;1835882;78;21074;-82
2021/06/30 06:02:38;;;;;;;3.55;2.37;;;;;;;19.60;76.51;97468.52;1835911;78;20878;-89
2021/06/30 06:05:05;;;;;;;5.45;2.90;;;;;;;19.62;76.45;97464.25;1836191;78;20996;-88
2021/06/30 06:07:32;;;;;;;4.83;1.98;;;;;;;19.69;76.23;97462.28;1835891;78;21520;-81
2021/06/30 06:10:01;;;;;;;6.72;2.30;;;;;;;19.72;75.60;97462.36;1835881;78;20874;-82
2021/06/30 06:12:27;;;;;;;5.37;1.60;;;;;;;19.90;75.71;97471.06;1836164;77;21081;-81
2021/06/30 06:14:55;;;;;;;2.27;1.77;;;;;;;20.03;75.34;97473.17;1835905;77;20959;-82
2021/06/30 06:17:23;;;;;;;4.40;1.77;;;;;;;20.08;74.42;97478.42;1831080;78;20878;-90
2021/06/30 06:19:49;;;;;;;3.60;2.12;;;;;;;19.97;74.19;97473.20;1836538;78;20889;-89
2021/06/30 06:22:15;;;;;;;6.33;2.05;;;;;;;19.93;74.54;97462.70;1835848;78;20938;-82
2021/06/30 06:24:44;;;;;;;3.62;1.42;;;;;;;20.05;74.35;97472.23;1836136;78;21774;-89
2021/06/30 06:27:11;;;;;;;2.10;1.67;;;;;;;20.06;73.61;97471.66;1835572;78;20961;-90
2021/06/30 06:29:37;;;;;;;3.00;1.60;;;;;;;20.13;73.46;97479.51;1836270;78;21006;-82
2021/06/30 06:32:19;;;;;;;;;;;;;;;;;;;;;
2021/06/30 06:34:54;;;;;;;;;;;;;;;;;;;;;
2021/06/30 06:37:30;;;;;;;;;;;;;;;;;;;;;
2021/06/30 06:39:50;;;;;;;2.30;1.40;;;;;;;20.15;72.67;97483.27;1764314;79;20909;-89
2021/06/30 06:42:16;;;;;;;2.37;1.60;;;;;;;20.09;72.67;97487.47;1831051;78;21381;-88
2021/06/30 06:44:42;;;;;;;2.95;1.60;;;;;;;20.01;72.71;97485.11;1836289;78;20806;-81
2021/06/30 06:47:08;;;;;;;4.45;1.65;;;;;;;20.02;72.73;97479.03;1836128;78;20968;-81
2021/06/30 06:49:36;;;;;;;4.62;1.98;;;;;;;20.14;72.68;97477.55;1835911;78;21005;-89
2021/06/30 06:52:06;;;;;;;3.20;1.85;;;;;;;20.22;72.71;97473.25;1835913;78;20915;-90
2021/06/30 06:54:31;;;;;;;;;;;;;;;20.28;72.63;97460.83;1838921;77;21016;-90
2021/06/30 06:57:08;;;;;;;2.63;1.50;;;;;;;20.26;72.24;97462.34;1836016;78;20392;-82
2021/06/30 06:59:31;;;;;;;2.02;1.37;;;;;;;20.34;72.34;97472.38;1833253;78;21432;-82
2021/06/30 07:01:57;;;;;;;3.45;1.65;;;;;;;20.44;72.28;97466.34;1836290;78;21386;-89
2021/06/30 07:04:23;;;;;;;3.98;1.60;;;;;;;20.59;72.10;97470.20;1836015;78;20918;-82
2021/06/30 07:06:52;;;;;;;3.10;2.50;;;;;;;20.64;71.87;97472.70;1836019;78;20980;-82
2021/06/30 07:09:28;;;;;;;3.33;2.05;;;;;;;20.72;71.54;97470.91;1832459;78;20981;-82
2021/06/30 07:11:53;;;;;;;5.05;1.70;;;;;;;20.73;71.38;97473.88;1833341;78;21452;-89
2021/06/30 07:14:19;;;;;;;2.98;1.60;;;;;;;20.65;70.99;97472.91;1827645;77;21261;-82
2021/06/30 07:16:47;;;;;;;2.20;1.73;;;;;;;20.68;71.13;97472.77;1798978;78;20961;-89
2021/06/30 07:19:16;;;;;;;5.25;1.90;;;;;;;20.79;70.99;97472.45;1827807;78;20968;-82
2021/06/30 07:21:53;;;;;;;;;;;;;;;;;;;;;
2021/06/30 07:24:15;;;;;;;3.92;1.70;;;;;;;20.81;70.11;97468.16;1822553;78;20906;-82
2021/06/30 07:26:43;;;;;;;3.20;1.80;;;;;;;20.98;70.53;97469.71;1827427;78;20863;-82
2021/06/30 07:29:13;;;;;;;2.72;1.62;;;;;;;21.13;70.27;97468.06;1827557;78;21048;-89
2021/06/30 07:31:48;;;;;;;2.47;1.60;;;;;;;21.34;70.09;97460.83;1799622;78;20903;-83
2021/06/30 07:34:09;;;;;;;6.05;2.05;;;;;;;21.49;69.87;97466.84;1825040;78;21311;-89
2021/06/30 07:36:37;;;;;;;3.05;1.70;;;;;;;21.76;69.58;97463.59;1827311;78;20993;-90
2021/06/30 07:39:04;;;;;;;4.08;1.92;;;;;;;22.18;69.05;97461.41;1827816;78;21629;-90
2021/06/30 07:41:32;;;;;;;4.25;3.02;;;;;;;22.49;68.00;97457.56;1823696;78;20862;-82
2021/06/30 07:44:07;;;;;;;3.52;2.20;;;;;;;22.62;66.95;97454.79;1827693;78;21243;-89
2021/06/30 07:46:27;;;;;;;8.20;2.60;;;;;;;22.48;66.95;97454.02;1823202;78;20949;-90
2021/06/30 07:48:54;;;;;;;3.65;1.98;;;;;;;22.45;66.65;97455.31;1827843;78;21012;-82
2021/06/30 07:51:22;;;;;;;3.33;2.10;;;;;;;22.35;67.05;97459.52;1801969;78;20929;-89
2021/06/30 07:53:48;;;;;;;2.83;2.20;;;;;;;22.35;67.07;97457.34;1827789;78;20977;-82
2021/06/30 07:56:17;;;;;;;5.35;2.20;;;;;;;22.74;66.02;97462.08;1827598;78;21584;-83
2021/06/30 07:58:44;;;;;;;6.03;2.55;;;;;;;22.92;65.04;97446.58;1827750;77;21311;-82
2021/06/30 08:01:20;;;;;;;;;;;;;;;;;;;;;
2021/06/30 08:03:42;;;;;;;3.87;2.98;;;;;;;23.43;64.29;97444.62;1819733;78;20938;-82
2021/06/30 08:06:08;;;;;;;6.58;2.80;;;;;;;24.21;62.61;97450.16;1827906;78;20985;-82
2021/06/30 08:08:52;;;;;;;;;;;;;;;;;;;;;
2021/06/30 08:11:18;;;;;;;;;;;;;;;;;;;;;
2021/06/30 08:13:42;;;;;;;3.87;3.50;;;;;;;24.76;61.13;97439.09;1800685;78;21438;-82
2021/06/30 08:16:07;;;;;;;6.08;3.50;;;;;;;24.45;61.48;97437.72;1826030;78;21453;-82
2021/06/30 08:18:39;;;;;;;6.42;3.90;;;;;;;24.20;62.57;97428.61;1760845;81;21227;-82
2021/06/30 08:21:11;;;;;;;13.00;3.77;;;;;;;25.07;62.60;97429.39;1801651;79;20997;-82
2021/06/30 08:24:04;;;;;;;;;;;;;;;;;;;;;
2021/06/30 08:26:15;;;;;;;6.03;3.25;;;;;;;26.07;57.81;97433.24;1733742;82;21025;-89
2021/06/30 08:28:57;;;;;;;;;;;;;;;;;;;;;
2021/06/30 08:31:27;;;;;;;;;;;;;;;;;;;;;
2021/06/30 08:34:00;;;;;;;;;;;;;;;;;;;;;
2021/06/30 08:36:23;;;;;;;10.72;3.98;;;;;;;27.66;53.80;97431.88;1731296;82;20982;-83
2021/06/30 08:38:52;;;;;;;6.90;4.47;;;;;;;27.83;52.05;97433.77;1720802;82;21432;-90
2021/06/30 08:41:20;;;;;;;6.75;4.85;;;;;;;27.36;53.25;97431.64;1745630;82;26192;-89
2021/06/30 08:43:52;;;;;;;5.92;3.67;;;;;;;27.18;53.40;97433.90;1742357;82;21514;-83
2021/06/30 08:46:52;;;;;;;;;;;;;;;;;;;;;
2021/06/30 08:49:00;;;;;;;6.50;4.10;;;;;;;28.91;51.20;97428.90;1724956;82;20982;-83
2021/06/30 08:51:37;;;;;;;6.40;4.05;;;;;;;29.83;49.12;97424.76;1710006;82;21446;-83
2021/06/30 08:54:36;;;;;;;;;;;;;;;;;;;;;
2021/06/30 08:56:55;;;;;;;6.42;3.58;;;;;;;31.06;43.13;97420.27;1646511;85;20917;-91
2021/06/30 08:59:27;;;;;;;8.80;4.50;;;;;;;30.56;43.11;97412.00;1664154;85;20989;-83
2021/06/30 09:01:58;;;;;;;5.97;3.67;;;;;;;30.93;43.83;97410.92;1728700;82;21091;-83
2021/06/30 09:04:42;;;;;;;6.97;3.15;;;;;;;31.58;44.02;97402.80;1715622;82;20999;-83
2021/06/30 09:08:11;;;;;;;;;;;;;;;;;;;;;
2021/06/30 09:09:58;;;;;;;4.55;2.83;;;;;;;33.01;37.51;97395.88;1716143;78;20878;-89
2021/06/30 09:12:43;;;;;;;6.85;2.95;;;;;;;33.22;37.01;97393.05;1811118;79;21434;-83
2021/06/30 09:15:30;;;;;;;5.33;3.10;;;;;;;33.22;37.01;97393.05;1780867;79;20899;-83
2021/06/30 09:18:21;;;;;;;8.10;3.40;;;;;;;33.45;37.90;97401.05;1782009;79;20985;-83
2021/06/30 09:20:58;;;;;;;5.65;2.90;;;;;;;33.26;38.82;97393.75;1811044;78;21156;-90
2021/06/30 09:23:22;;;;;;;3.12;2.72;;;;;;;33.52;36.38;97389.61;1707067;83;21368;-91
2021/06/30 09:25:52;;;;;;;4.03;2.65;;;;;;;32.88;39.09;97385.20;1787756;79;21066;-83
2021/06/30 09:28:26;;;;;;;5.45;3.10;;;;;;;32.15;38.93;97390.91;1781898;79;20986;-83
2021/06/30 09:31:04;;;;;;;4.60;2.52;;;;;;;33.13;38.19;97388.71;1811829;79;20926;-82
2021/06/30 09:33:50;;;;;;;3.17;2.47;;;;;;;34.15;37.57;97390.23;1808692;78;21296;-83
2021/06/30 09:36:16;;;;;;;4.22;2.60;;;;;;;35.11;36.49;97385.50;1811078;79;20962;-87
2021/06/30 09:38:44;;;;;;;3.77;3.08;;;;;;;34.74;34.99;97385.83;1811553;79;21024;-82
2021/06/30 09:41:30;;;;;;;3.40;2.58;;;;;;;33.22;34.75;97383.84;1811492;77;21001;-81
2021/06/30 09:44:14;;;;;;;3.83;2.35;;;;;;;33.30;35.14;97380.38;1783324;77;21044;-88
2021/06/30 09:49:17;;;;;;;4.03;2.22;;;;;;;34.67;33.10;97384.67;1830644;77;20934;-87
2021/06/30 09:51:45;;;;;;;5.17;2.45;;;;;;;34.56;32.91;97385.67;1858535;76;21326;-90
2021/06/30 09:54:17;;;;;;;6.72;2.40;;;;;;;35.63;32.49;97376.12;1873941;76;20994;-83
2021/06/30 09:57:02;;;;;;;6.08;2.50;;;;;;;36.87;30.36;97378.03;1861188;76;20896;-90
2021/06/30 09:59:33;;;;;;;3.87;1.80;;;;;;;35.67;31.61;97380.38;1845325;76;21738;-83
2021/06/30 10:02:11;;;;;;;3.80;2.08;;;;;;;34.83;30.09;97377.45;1873301;76;20880;-84
2021/06/30 10:04:43;;;;;;;9.43;2.47;;;;;;;36.04;30.17;97373.48;1874002;76;21343;-82
2021/06/30 10:07:15;;;;;;;3.45;1.98;;;;;;;36.07;30.30;97371.16;1873626;76;20879;-89
2021/06/30 10:09:53;;;;;;;2.45;1.70;;;;;;;35.63;30.24;97378.31;1873369;76;20937;-81
2021/06/30 10:12:25;;;;;;;5.97;2.15;;;;;;;36.37;30.10;97370.30;1875472;76;21088;-83
2021/06/30 10:14:53;;;;;;;2.77;1.70;;;;;;;37.70;26.84;97369.41;1873878;76;20859;-83
2021/06/30 10:17:20;;;;;;;3.92;1.70;;;;;;;37.18;28.96;97369.38;1873511;76;20966;-91
2021/06/30 10:19:51;;;;;;;3.58;2.12;;;;;;;36.13;28.72;97371.47;1873338;76;20874;-91
2021/06/30 10:22:18;;;;;;;3.00;2.33;;;;;;;37.10;28.75;97373.00;1873520;76;20958;-83
2021/06/30 10:24:44;;;;;;;5.60;1.75;;;;;;;37.79;27.91;97370.19;1873871;76;21109;-89
2021/06/30 10:27:13;;;;;;;4.55;2.02;;;;;;;38.28;26.78;97368.98;1873848;76;20961;-83
2021/06/30 10:29:42;;;;;;;5.15;1.65;;;;;;;38.80;27.02;97365.95;1873811;76;20995;-82
2021/06/30 10:32:13;;;;;;;3.83;1.72;;;;;;;39.16;24.78;97357.80;1872598;76;20938;-90
2021/06/30 10:34:44;;;;;;;2.87;1.40;;;;;;;39.21;25.30;97363.55;1874159;76;20895;-83
2021/06/30 10:37:36;;;;;;;2.02;1.25;;;;;;;39.60;25.27;97370.55;1873634;76;20902;-83
2021/06/30 10:40:12;;;;;;;1.95;1.60;;;;;;;39.42;24.98;97363.02;1873520;76;20879;-83
2021/06/30 10:42:49;;;;;;;4.85;1.50;;;;;;;39.91;25.19;97361.52;1873786;76;20988;-82
2021/06/30 10:45:21;;;;;;;4.37;2.37;;;;;;;39.80;24.61;97357.70;1873400;76;20886;-83
2021/06/30 10:48:09;;;;;;;2.12;1.52;;;;;;;39.59;24.10;97355.46;1873868;76;20966;-83
2021/06/30 10:50:47;;;;;;;3.52;1.50;;;;;;;39.50;25.15;97354.91;1878740;76;21720;-89
2021/06/30 10:53:28;;;;;;;3.35;1.50;;;;;;;38.50;25.09;97353.12;1879106;76;21386;-83
2021/06/30 10:55:59;;;;;;;3.47;1.60;;;;;;;38.01;25.73;97352.94;1879013;76;20930;-83
2021/06/30 10:58:30;;;;;;;3.08;1.50;;;;;;;38.18;25.94;97351.11;1879298;76;20913;-90
2021/06/30 11:01:05;;;;;;;2.05;1.67;;;;;;;38.56;24.66;97359.69;1878997;76;21331;-82
2021/06/30 11:03:50;;;;;;;3.62;1.42;;;;;;;38.70;24.28;97358.17;1879236;76;21523;-83
2021/06/30 11:06:31;;;;;;;4.70;1.52;;;;;;;37.42;24.90;97357.41;1878687;76;20965;-90
2021/06/30 11:09:05;;;;;;;3.05;1.80;;;;;;;38.33;24.76;97354.19;1879213;76;21407;-83
2021/06/30 11:11:42;;;;;;;7.47;1.80;;;;;;;38.36;24.93;97353.21;1867776;76;21398;-83
2021/06/30 11:14:12;;;;;;;3.75;1.55;;;;;;;38.02;24.99;97353.72;1879155;76;20946;-91
2021/06/30 11:16:45;;;;;;;3.33;1.32;;;;;;;36.94;26.82;97357.18;1878594;76;21093;-91
2021/06/30 11:19:20;;;;;;;3.70;1.82;;;;;;;37.68;26.53;97351.50;1878996;76;21367;-91
2021/06/30 11:22:04;;;;;;;4.03;1.67;;;;;;;36.98;26.60;97359.98;1878955;76;21351;-83
2021/06/30 11:24:43;;;;;;;2.55;1.45;;;;;;;37.23;26.06;97359.47;1879584;76;20985;-83
2021/06/30 11:27:35;;;;;;;8.38;1.60;;;;;;;36.98;27.05;97350.73;1847474;76;21450;-91
2021/06/30 11:30:08;;;;;;;2.58;1.70;;;;;;;35.73;29.10;97356.63;1879473;76;21354;-82
2021/06/30 11:32:39;;;;;;;5.70;1.77;;;;;;;36.76;27.59;97356.54;1847835;76;20935;-91
2021/06/30 11:35:16;;;;;;;4.90;2.02;;;;;;;37.28;27.13;97354.61;1878878;76;20980;-83
2021/06/30 11:37:47;;;;;;;4.70;1.70;;;;;;;36.41;28.61;97342.74;1879440;76;20906;-91
2021/06/30 11:40:20;;;;;;;4.10;2.10;;;;;;;38.01;27.16;97340.22;1878544;76;21417;-91
2021/06/30 11:42:48;;;;;;;5.72;1.67;;;;;;;38.69;26.47;97355.20;1878630;76;21122;-90
2021/06/30 11:45:31;;;;;;;3.00;1.95;;;;;;;37.91;27.04;97338.70;1875766;76;20938;-83
2021/06/30 11:48:10;;;;;;;;;;;;;;;;;;;;;
2021/06/30 11:50:36;;;;;;;3.85;2.42;;;;;;;37.68;27.35;97340.83;1875683;76;20941;-83
2021/06/30 11:53:03;;;;;;;5.90;2.12;;;;;;;37.30;28.00;97342.83;1876205;76;20938;-83
2021/06/30 11:55:39;;;;;;;7.53;2.10;;;;;;;38.05;27.10;97338.64;1878782;76;21477;-82
2021/06/30 11:58:06;;;;;;;3.75;1.75;;;;;;;38.39;26.62;97338.75;1879016;76;20946;-90
2021/06/30 12:00:35;;;;;;;2.75;1.60;;;;;;;38.14;27.09;97330.09;1879546;76;21367;-82
2021/06/30 12:03:05;;;;;;;2.58;1.82;;;;;;;37.81;27.18;97325.89;1848220;76;20899;-92
2021/06/30 12:05:35;;;;;;;3.58;1.70;;;;;;;37.03;28.21;97319.68;1878739;76;21048;-90
2021/06/30 12:08:09;;;;;;;2.37;1.60;;;;;;;37.52;27.57;97325.06;1879246;76;21830;-83